Port Heiden Airport
PAPH : rendu visible

Aérodrome :











RETROUVEZ-NOUS SUR...

 
LOGIN :

S'inscrire | Disclaimer

   EN    FR    IT 

 









Légende :    VFR   VFR Marginal   IFR   IFR Intensif   IFR Très Intensif
Visi : 
Plafond : 
>= 8 km
>= 3000ft
5 à 8 km
1000 à 3000 ft
1500m à 5 km
500 à 1000 ft
800 à 1500m
200 à 500 ft
< 800m
< 200 ft
Symboles :   Orages  Brouillard  Fortes neiges  Fortes précipitations  Vent > 20 kt






- Altitude de l'aérodrome : 95 ft
- Code IATA : PTH


PAPH - Port Heiden

DERNIER METAR :
  • 200456Z AUTO 28007KT 10SM FEW017 OVC046 09/07 A2991 RMK AO2 SLP130 T00940067

METARs EXPIRÉS :
  • 200426Z AUTO 27008KT 10SM FEW017 SCT022 OVC046 09/06 A2991 RMK AO2
  • 200416Z AUTO 28009KT 10SM SCT019 BKN029 OVC046 09/06 A2991 RMK AO2
  • 200356Z AUTO 28008KT 10SM OVC046 09/07 A2991 RMK AO2 SLP128 T00940067
  • 200256Z AUTO 28011KT 10SM FEW017 OVC046 10/06 A2990 RMK AO2 SLP124 T01000061 53005
  • 200244Z AUTO 27011KT 10SM FEW017 OVC046 10/07 A2990 RMK AO2
  • 200235Z AUTO 29009KT 10SM BKN017 OVC046 10/07 A2990 RMK AO2
  • 200226Z AUTO 28012KT 10SM SCT015 OVC046 10/07 A2990 RMK AO2
  • 200213Z AUTO 28011KT 10SM BKN015 BKN020 OVC044 10/07 A2990 RMK AO2

TAF N/A
FIR PAZA / Amérique du Nord



MET'MAP, la Météo Aéronautique d'un coup d'oeil ! - Copyright ORBIFLY Décembre 2007 - Disclaimer

ORBIFLY MET'MAP TEAM :

Programmation & Développement : Alexandra Zaïnal
Sur une idée originale de : Baudouin d'Aumeries
Assistance à la programmation : Marc-Olivier Méhu
Soutien technique & logistique : Manuel Goepfert

Contact : metmap@orbifly.com




SOURCES & CREDITS :

   NOAA       Earth
Advisory